sensor_id;sensor_type;location;lat;lon;timestamp;temperature;humidity
13707;DHT22;6925;47.816;13.072;2024-02-26T00:00:22;7.60;54.20
13707;DHT22;6925;47.816;13.072;2024-02-26T00:02:50;7.60;53.80
13707;DHT22;6925;47.816;13.072;2024-02-26T00:05:18;7.60;53.60
13707;DHT22;6925;47.816;13.072;2024-02-26T00:07:45;7.60;54.10
13707;DHT22;6925;47.816;13.072;2024-02-26T00:10:13;7.40;54.40
13707;DHT22;6925;47.816;13.072;2024-02-26T00:12:40;7.40;54.80
13707;DHT22;6925;47.816;13.072;2024-02-26T00:15:08;7.40;55.00
13707;DHT22;6925;47.816;13.072;2024-02-26T00:17:36;7.50;55.00
13707;DHT22;6925;47.816;13.072;2024-02-26T00:20:05;7.40;54.40
13707;DHT22;6925;47.816;13.072;2024-02-26T00:22:34;7.40;54.70
13707;DHT22;6925;47.816;13.072;2024-02-26T00:25:01;7.50;54.40
13707;DHT22;6925;47.816;13.072;2024-02-26T00:27:28;7.50;54.00
13707;DHT22;6925;47.816;13.072;2024-02-26T00:29:55;7.50;54.50
13707;DHT22;6925;47.816;13.072;2024-02-26T00:32:22;7.40;54.70
13707;DHT22;6925;47.816;13.072;2024-02-26T00:34:49;7.30;54.20
13707;DHT22;6925;47.816;13.072;2024-02-26T00:37:19;7.30;54.50
13707;DHT22;6925;47.816;13.072;2024-02-26T00:39:46;7.20;54.90
13707;DHT22;6925;47.816;13.072;2024-02-26T00:42:13;7.20;55.00
13707;DHT22;6925;47.816;13.072;2024-02-26T00:44:40;7.20;54.70
13707;DHT22;6925;47.816;13.072;2024-02-26T00:47:07;7.20;54.40
13707;DHT22;6925;47.816;13.072;2024-02-26T00:49:34;7.30;54.80
13707;DHT22;6925;47.816;13.072;2024-02-26T00:52:01;7.10;55.00
13707;DHT22;6925;47.816;13.072;2024-02-26T00:54:30;7.10;55.00
13707;DHT22;6925;47.816;13.072;2024-02-26T00:56:57;7.00;55.00
13707;DHT22;6925;47.816;13.072;2024-02-26T00:59:24;6.90;55.20
13707;DHT22;6925;47.816;13.072;2024-02-26T01:01:51;6.90;55.40
13707;DHT22;6925;47.816;13.072;2024-02-26T01:04:18;6.80;55.20
13707;DHT22;6925;47.816;13.072;2024-02-26T01:06:45;6.80;54.80
13707;DHT22;6925;47.816;13.072;2024-02-26T01:09:12;6.80;55.40
13707;DHT22;6925;47.816;13.072;2024-02-26T01:11:40;6.90;55.50
13707;DHT22;6925;47.816;13.072;2024-02-26T01:14:07;6.90;55.80
13707;DHT22;6925;47.816;13.072;2024-02-26T01:16:34;7.00;55.40
13707;DHT22;6925;47.816;13.072;2024-02-26T01:19:02;7.00;55.50
13707;DHT22;6925;47.816;13.072;2024-02-26T01:21:29;7.00;54.90
13707;DHT22;6925;47.816;13.072;2024-02-26T01:23:56;7.00;54.50
13707;DHT22;6925;47.816;13.072;2024-02-26T01:26:23;7.00;54.40
13707;DHT22;6925;47.816;13.072;2024-02-26T01:28:51;7.00;54.80
13707;DHT22;6925;47.816;13.072;2024-02-26T01:31:20;7.00;55.20
13707;DHT22;6925;47.816;13.072;2024-02-26T01:33:47;7.00;55.10
13707;DHT22;6925;47.816;13.072;2024-02-26T01:36:14;7.00;55.20
13707;DHT22;6925;47.816;13.072;2024-02-26T01:38:41;7.00;54.80
13707;DHT22;6925;47.816;13.072;2024-02-26T01:41:08;7.00;54.50
13707;DHT22;6925;47.816;13.072;2024-02-26T01:43:36;7.00;54.20
13707;DHT22;6925;47.816;13.072;2024-02-26T01:46:05;6.90;54.10
13707;DHT22;6925;47.816;13.072;2024-02-26T01:48:32;6.90;54.20
13707;DHT22;6925;47.816;13.072;2024-02-26T01:50:59;6.90;54.40
13707;DHT22;6925;47.816;13.072;2024-02-26T01:53:26;6.90;54.70
13707;DHT22;6925;47.816;13.072;2024-02-26T01:55:53;6.90;54.40
13707;DHT22;6925;47.816;13.072;2024-02-26T01:58:21;6.90;54.20
13707;DHT22;6925;47.816;13.072;2024-02-26T02:00:48;6.90;54.20
13707;DHT22;6925;47.816;13.072;2024-02-26T02:03:16;7.00;54.20
13707;DHT22;6925;47.816;13.072;2024-02-26T02:05:44;7.00;54.20
13707;DHT22;6925;47.816;13.072;2024-02-26T02:08:13;7.00;54.10
13707;DHT22;6925;47.816;13.072;2024-02-26T02:10:42;7.00;54.50
13707;DHT22;6925;47.816;13.072;2024-02-26T02:13:09;6.90;54.50
13707;DHT22;6925;47.816;13.072;2024-02-26T02:15:36;6.90;54.50
13707;DHT22;6925;47.816;13.072;2024-02-26T02:18:04;6.80;54.50
13707;DHT22;6925;47.816;13.072;2024-02-26T02:20:33;6.90;54.60
13707;DHT22;6925;47.816;13.072;2024-02-26T02:23:01;6.90;54.60
13707;DHT22;6925;47.816;13.072;2024-02-26T02:25:28;6.80;54.60
13707;DHT22;6925;47.816;13.072;2024-02-26T02:27:55;6.80;54.80
13707;DHT22;6925;47.816;13.072;2024-02-26T02:30:26;6.70;54.80
13707;DHT22;6925;47.816;13.072;2024-02-26T02:32:55;6.70;55.20
13707;DHT22;6925;47.816;13.072;2024-02-26T02:35:24;6.70;55.30
13707;DHT22;6925;47.816;13.072;2024-02-26T02:37:53;6.70;55.40
13707;DHT22;6925;47.816;13.072;2024-02-26T02:40:20;6.60;56.20
13707;DHT22;6925;47.816;13.072;2024-02-26T02:42:47;6.50;55.80
13707;DHT22;6925;47.816;13.072;2024-02-26T02:45:14;6.50;56.10
13707;DHT22;6925;47.816;13.072;2024-02-26T02:47:41;6.50;56.10
13707;DHT22;6925;47.816;13.072;2024-02-26T02:50:09;6.50;55.90
13707;DHT22;6925;47.816;13.072;2024-02-26T02:52:36;6.40;56.00
13707;DHT22;6925;47.816;13.072;2024-02-26T02:55:05;6.30;56.20
13707;DHT22;6925;47.816;13.072;2024-02-26T02:57:32;6.30;56.30
13707;DHT22;6925;47.816;13.072;2024-02-26T03:00:00;6.30;56.10
13707;DHT22;6925;47.816;13.072;2024-02-26T03:02:29;6.30;56.20
13707;DHT22;6925;47.816;13.072;2024-02-26T03:04:56;6.30;56.30
13707;DHT22;6925;47.816;13.072;2024-02-26T03:07:23;6.30;55.90
13707;DHT22;6925;47.816;13.072;2024-02-26T03:09:50;6.30;56.10
13707;DHT22;6925;47.816;13.072;2024-02-26T03:12:19;6.30;56.30
13707;DHT22;6925;47.816;13.072;2024-02-26T03:14:46;6.30;56.60
13707;DHT22;6925;47.816;13.072;2024-02-26T03:17:13;6.30;55.90
13707;DHT22;6925;47.816;13.072;2024-02-26T03:19:40;6.20;56.40
13707;DHT22;6925;47.816;13.072;2024-02-26T03:22:07;6.10;56.60
13707;DHT22;6925;47.816;13.072;2024-02-26T03:24:34;6.10;56.80
13707;DHT22;6925;47.816;13.072;2024-02-26T03:27:01;6.10;56.80
13707;DHT22;6925;47.816;13.072;2024-02-26T03:29:32;6.10;56.60
13707;DHT22;6925;47.816;13.072;2024-02-26T03:31:59;6.10;56.90
13707;DHT22;6925;47.816;13.072;2024-02-26T03:34:26;6.10;56.80
13707;DHT22;6925;47.816;13.072;2024-02-26T03:36:53;6.00;56.70
13707;DHT22;6925;47.816;13.072;2024-02-26T03:39:20;6.00;56.90
13707;DHT22;6925;47.816;13.072;2024-02-26T03:41:48;6.00;57.00
13707;DHT22;6925;47.816;13.072;2024-02-26T03:44:15;6.00;56.70
13707;DHT22;6925;47.816;13.072;2024-02-26T03:46:43;6.10;56.70
13707;DHT22;6925;47.816;13.072;2024-02-26T03:49:10;6.10;56.70
13707;DHT22;6925;47.816;13.072;2024-02-26T03:51:39;6.10;56.40
13707;DHT22;6925;47.816;13.072;2024-02-26T03:54:06;6.10;56.50
13707;DHT22;6925;47.816;13.072;2024-02-26T03:56:33;6.10;56.30
13707;DHT22;6925;47.816;13.072;2024-02-26T03:59:00;6.10;56.30
13707;DHT22;6925;47.816;13.072;2024-02-26T04:01:28;6.10;56.20
13707;DHT22;6925;47.816;13.072;2024-02-26T04:03:56;6.00;56.30
13707;DHT22;6925;47.816;13.072;2024-02-26T04:06:23;6.00;56.40
13707;DHT22;6925;47.816;13.072;2024-02-26T04:08:50;6.00;56.30
13707;DHT22;6925;47.816;13.072;2024-02-26T04:11:17;6.00;56.70
13707;DHT22;6925;47.816;13.072;2024-02-26T04:13:46;5.90;56.90
13707;DHT22;6925;47.816;13.072;2024-02-26T04:16:15;5.90;56.90
13707;DHT22;6925;47.816;13.072;2024-02-26T04:18:42;6.00;56.60
13707;DHT22;6925;47.816;13.072;2024-02-26T04:21:10;5.90;56.20
13707;DHT22;6925;47.816;13.072;2024-02-26T04:23:37;5.80;56.80
13707;DHT22;6925;47.816;13.072;2024-02-26T04:26:05;5.80;57.20
13707;DHT22;6925;47.816;13.072;2024-02-26T04:28:32;5.80;57.10
13707;DHT22;6925;47.816;13.072;2024-02-26T04:30:59;5.70;57.20
13707;DHT22;6925;47.816;13.072;2024-02-26T04:33:26;5.70;57.20
13707;DHT22;6925;47.816;13.072;2024-02-26T04:35:53;5.70;57.10
13707;DHT22;6925;47.816;13.072;2024-02-26T04:38:21;5.80;57.10
13707;DHT22;6925;47.816;13.072;2024-02-26T04:40:49;5.80;57.20
13707;DHT22;6925;47.816;13.072;2024-02-26T04:43:16;5.70;57.30
13707;DHT22;6925;47.816;13.072;2024-02-26T04:45:43;5.70;57.20
13707;DHT22;6925;47.816;13.072;2024-02-26T04:48:10;5.70;57.50
13707;DHT22;6925;47.816;13.072;2024-02-26T04:50:37;5.60;57.40
13707;DHT22;6925;47.816;13.072;2024-02-26T04:53:04;5.60;57.70
13707;DHT22;6925;47.816;13.072;2024-02-26T04:55:33;5.60;57.60
13707;DHT22;6925;47.816;13.072;2024-02-26T04:58:00;5.60;57.70
13707;DHT22;6925;47.816;13.072;2024-02-26T05:00:27;5.60;57.70
13707;DHT22;6925;47.816;13.072;2024-02-26T05:02:54;5.60;57.80
13707;DHT22;6925;47.816;13.072;2024-02-26T05:05:21;5.60;57.60
13707;DHT22;6925;47.816;13.072;2024-02-26T05:07:48;5.70;57.40
13707;DHT22;6925;47.816;13.072;2024-02-26T05:10:16;5.70;57.60
13707;DHT22;6925;47.816;13.072;2024-02-26T05:12:44;5.70;57.60
13707;DHT22;6925;47.816;13.072;2024-02-26T05:15:11;5.70;57.50
13707;DHT22;6925;47.816;13.072;2024-02-26T05:17:43;5.70;57.60
13707;DHT22;6925;47.816;13.072;2024-02-26T05:20:11;5.70;57.60
13707;DHT22;6925;47.816;13.072;2024-02-26T05:22:38;5.80;57.30
13707;DHT22;6925;47.816;13.072;2024-02-26T05:25:05;5.70;57.40
13707;DHT22;6925;47.816;13.072;2024-02-26T05:27:33;5.80;57.30
13707;DHT22;6925;47.816;13.072;2024-02-26T05:30:01;5.70;57.30
13707;DHT22;6925;47.816;13.072;2024-02-26T05:32:29;5.70;57.50
13707;DHT22;6925;47.816;13.072;2024-02-26T05:34:56;5.70;57.50
13707;DHT22;6925;47.816;13.072;2024-02-26T05:37:23;5.70;57.60
13707;DHT22;6925;47.816;13.072;2024-02-26T05:39:50;5.60;57.40
13707;DHT22;6925;47.816;13.072;2024-02-26T05:42:17;5.60;57.70
13707;DHT22;6925;47.816;13.072;2024-02-26T05:44:44;5.60;57.80
13707;DHT22;6925;47.816;13.072;2024-02-26T05:47:13;5.60;57.90
13707;DHT22;6925;47.816;13.072;2024-02-26T05:49:41;5.60;57.90
13707;DHT22;6925;47.816;13.072;2024-02-26T05:52:08;5.50;57.90
13707;DHT22;6925;47.816;13.072;2024-02-26T05:54:35;5.50;57.90
13707;DHT22;6925;47.816;13.072;2024-02-26T05:57:02;5.50;58.00
13707;DHT22;6925;47.816;13.072;2024-02-26T05:59:30;5.50;58.20
13707;DHT22;6925;47.816;13.072;2024-02-26T06:01:57;5.60;58.30
13707;DHT22;6925;47.816;13.072;2024-02-26T06:04:25;5.60;58.20
13707;DHT22;6925;47.816;13.072;2024-02-26T06:06:52;5.60;58.10
13707;DHT22;6925;47.816;13.072;2024-02-26T06:09:19;5.70;58.10
13707;DHT22;6925;47.816;13.072;2024-02-26T06:11:46;5.70;58.20
13707;DHT22;6925;47.816;13.072;2024-02-26T06:14:13;5.70;58.30
13707;DHT22;6925;47.816;13.072;2024-02-26T06:16:44;5.70;58.30
13707;DHT22;6925;47.816;13.072;2024-02-26T06:19:11;5.80;58.40
13707;DHT22;6925;47.816;13.072;2024-02-26T06:21:39;5.80;57.90
13707;DHT22;6925;47.816;13.072;2024-02-26T06:24:07;5.80;58.00
13707;DHT22;6925;47.816;13.072;2024-02-26T06:26:34;5.80;58.00
13707;DHT22;6925;47.816;13.072;2024-02-26T06:29:01;5.80;57.90
13707;DHT22;6925;47.816;13.072;2024-02-26T06:31:28;5.90;58.10
13707;DHT22;6925;47.816;13.072;2024-02-26T06:33:55;5.90;58.30
13707;DHT22;6925;47.816;13.072;2024-02-26T06:36:22;6.00;57.50
13707;DHT22;6925;47.816;13.072;2024-02-26T06:38:51;5.90;58.20
13707;DHT22;6925;47.816;13.072;2024-02-26T06:41:19;6.00;59.00
13707;DHT22;6925;47.816;13.072;2024-02-26T06:43:46;6.10;58.30
13707;DHT22;6925;47.816;13.072;2024-02-26T06:46:14;6.10;58.00
13707;DHT22;6925;47.816;13.072;2024-02-26T06:48:41;6.10;57.30
13707;DHT22;6925;47.816;13.072;2024-02-26T06:51:08;6.10;57.20
13707;DHT22;6925;47.816;13.072;2024-02-26T06:53:35;6.10;57.20
13707;DHT22;6925;47.816;13.072;2024-02-26T06:56:04;6.10;57.20
13707;DHT22;6925;47.816;13.072;2024-02-26T06:58:32;6.20;57.40
13707;DHT22;6925;47.816;13.072;2024-02-26T07:00:59;6.20;57.50
13707;DHT22;6925;47.816;13.072;2024-02-26T07:03:26;6.30;57.90
13707;DHT22;6925;47.816;13.072;2024-02-26T07:05:53;6.40;58.10
13707;DHT22;6925;47.816;13.072;2024-02-26T07:08:20;6.50;57.90
13707;DHT22;6925;47.816;13.072;2024-02-26T07:10:47;6.50;58.10
13707;DHT22;6925;47.816;13.072;2024-02-26T07:13:16;6.60;58.20
13707;DHT22;6925;47.816;13.072;2024-02-26T07:15:43;6.60;58.30
13707;DHT22;6925;47.816;13.072;2024-02-26T07:18:10;6.80;58.30
13707;DHT22;6925;47.816;13.072;2024-02-26T07:20:37;6.90;58.60
13707;DHT22;6925;47.816;13.072;2024-02-26T07:23:04;6.90;58.40
13707;DHT22;6925;47.816;13.072;2024-02-26T07:25:32;7.10;58.30
13707;DHT22;6925;47.816;13.072;2024-02-26T07:27:59;7.20;58.00
13707;DHT22;6925;47.816;13.072;2024-02-26T07:30:28;7.20;58.20
13707;DHT22;6925;47.816;13.072;2024-02-26T07:32:55;7.30;58.50
13707;DHT22;6925;47.816;13.072;2024-02-26T07:35:22;7.40;58.50
13707;DHT22;6925;47.816;13.072;2024-02-26T07:37:49;7.50;58.30
13707;DHT22;6925;47.816;13.072;2024-02-26T07:40:16;7.60;58.10
13707;DHT22;6925;47.816;13.072;2024-02-26T07:42:44;7.70;58.30
13707;DHT22;6925;47.816;13.072;2024-02-26T07:45:11;7.80;58.20
13707;DHT22;6925;47.816;13.072;2024-02-26T07:47:40;7.90;57.90
13707;DHT22;6925;47.816;13.072;2024-02-26T07:50:07;8.00;58.10
13707;DHT22;6925;47.816;13.072;2024-02-26T07:52:35;8.10;57.90
13707;DHT22;6925;47.816;13.072;2024-02-26T07:55:02;8.10;57.00
13707;DHT22;6925;47.816;13.072;2024-02-26T07:57:29;8.10;57.10
13707;DHT22;6925;47.816;13.072;2024-02-26T07:59:56;8.20;57.80
13707;DHT22;6925;47.816;13.072;2024-02-26T08:02:24;8.30;57.60
13707;DHT22;6925;47.816;13.072;2024-02-26T08:04:52;8.40;57.20
13707;DHT22;6925;47.816;13.072;2024-02-26T08:07:19;8.50;56.90
13707;DHT22;6925;47.816;13.072;2024-02-26T08:09:46;8.60;57.20
13707;DHT22;6925;47.816;13.072;2024-02-26T08:12:14;8.60;57.20
13707;DHT22;6925;47.816;13.072;2024-02-26T08:14:41;8.70;56.90
13707;DHT22;6925;47.816;13.072;2024-02-26T08:17:08;8.70;56.00
13707;DHT22;6925;47.816;13.072;2024-02-26T08:19:35;8.80;56.80
13707;DHT22;6925;47.816;13.072;2024-02-26T08:22:04;9.00;57.30
13707;DHT22;6925;47.816;13.072;2024-02-26T08:24:31;9.10;56.90
13707;DHT22;6925;47.816;13.072;2024-02-26T08:26:58;9.20;56.60
13707;DHT22;6925;47.816;13.072;2024-02-26T08:29:25;9.30;56.30
13707;DHT22;6925;47.816;13.072;2024-02-26T08:31:52;9.40;56.30
13707;DHT22;6925;47.816;13.072;2024-02-26T08:34:19;9.60;56.40
13707;DHT22;6925;47.816;13.072;2024-02-26T08:36:46;9.70;56.40
13707;DHT22;6925;47.816;13.072;2024-02-26T08:39:16;9.80;55.30
13707;DHT22;6925;47.816;13.072;2024-02-26T08:41:43;10.00;56.20
13707;DHT22;6925;47.816;13.072;2024-02-26T08:44:10;10.10;54.80
13707;DHT22;6925;47.816;13.072;2024-02-26T08:46:37;10.30;54.90
13707;DHT22;6925;47.816;13.072;2024-02-26T08:49:04;10.40;55.30
13707;DHT22;6925;47.816;13.072;2024-02-26T08:51:31;10.60;53.00
13707;DHT22;6925;47.816;13.072;2024-02-26T08:53:58;10.70;51.60
13707;DHT22;6925;47.816;13.072;2024-02-26T08:56:27;10.80;52.40
13707;DHT22;6925;47.816;13.072;2024-02-26T08:58:54;10.90;53.10
13707;DHT22;6925;47.816;13.072;2024-02-26T09:01:23;11.20;54.20
13707;DHT22;6925;47.816;13.072;2024-02-26T09:03:50;11.50;53.10
13707;DHT22;6925;47.816;13.072;2024-02-26T09:06:17;11.60;50.90
13707;DHT22;6925;47.816;13.072;2024-02-26T09:08:44;11.60;51.10
13707;DHT22;6925;47.816;13.072;2024-02-26T09:11:11;11.60;50.40
13707;DHT22;6925;47.816;13.072;2024-02-26T09:13:39;11.60;49.50
13707;DHT22;6925;47.816;13.072;2024-02-26T09:16:07;11.60;49.20
13707;DHT22;6925;47.816;13.072;2024-02-26T09:18:35;11.70;49.80
13707;DHT22;6925;47.816;13.072;2024-02-26T09:21:04;11.70;49.60
13707;DHT22;6925;47.816;13.072;2024-02-26T09:23:31;11.80;50.00
13707;DHT22;6925;47.816;13.072;2024-02-26T09:26:00;12.00;51.30
13707;DHT22;6925;47.816;13.072;2024-02-26T09:28:27;12.20;49.90
13707;DHT22;6925;47.816;13.072;2024-02-26T09:30:58;12.40;52.90
13707;DHT22;6925;47.816;13.072;2024-02-26T09:33:25;12.70;51.60
13707;DHT22;6925;47.816;13.072;2024-02-26T09:35:52;13.00;53.00
13707;DHT22;6925;47.816;13.072;2024-02-26T09:38:20;13.40;51.50
13707;DHT22;6925;47.816;13.072;2024-02-26T09:40:47;13.50;46.30
13707;DHT22;6925;47.816;13.072;2024-02-26T09:43:14;13.40;48.90
13707;DHT22;6925;47.816;13.072;2024-02-26T09:45:42;13.60;47.60
13707;DHT22;6925;47.816;13.072;2024-02-26T09:48:12;13.50;47.20
13707;DHT22;6925;47.816;13.072;2024-02-26T09:50:42;13.50;46.10
13707;DHT22;6925;47.816;13.072;2024-02-26T09:53:10;13.50;44.40
13707;DHT22;6925;47.816;13.072;2024-02-26T09:55:38;13.40;45.30
13707;DHT22;6925;47.816;13.072;2024-02-26T09:58:05;13.30;46.30
13707;DHT22;6925;47.816;13.072;2024-02-26T10:00:37;13.30;44.60
13707;DHT22;6925;47.816;13.072;2024-02-26T10:03:05;13.20;45.10
13707;DHT22;6925;47.816;13.072;2024-02-26T10:05:34;13.10;45.20
13707;DHT22;6925;47.816;13.072;2024-02-26T10:08:02;13.10;44.60
13707;DHT22;6925;47.816;13.072;2024-02-26T10:10:31;13.10;45.80
13707;DHT22;6925;47.816;13.072;2024-02-26T10:13:00;13.20;46.20
13707;DHT22;6925;47.816;13.072;2024-02-26T10:15:27;13.30;46.10
13707;DHT22;6925;47.816;13.072;2024-02-26T10:17:54;13.20;44.20
13707;DHT22;6925;47.816;13.072;2024-02-26T10:20:22;13.00;44.10
13707;DHT22;6925;47.816;13.072;2024-02-26T10:22:50;12.90;45.10
13707;DHT22;6925;47.816;13.072;2024-02-26T10:25:18;13.00;45.90
13707;DHT22;6925;47.816;13.072;2024-02-26T10:27:46;13.10;45.20
13707;DHT22;6925;47.816;13.072;2024-02-26T10:30:16;13.10;45.80
13707;DHT22;6925;47.816;13.072;2024-02-26T10:32:44;13.10;45.70
13707;DHT22;6925;47.816;13.072;2024-02-26T10:35:12;13.30;45.70
13707;DHT22;6925;47.816;13.072;2024-02-26T10:37:39;13.20;44.80
13707;DHT22;6925;47.816;13.072;2024-02-26T10:40:10;13.20;44.50
13707;DHT22;6925;47.816;13.072;2024-02-26T10:42:37;13.20;44.90
13707;DHT22;6925;47.816;13.072;2024-02-26T10:45:05;13.20;45.70
13707;DHT22;6925;47.816;13.072;2024-02-26T10:47:32;13.20;44.90
13707;DHT22;6925;47.816;13.072;2024-02-26T10:50:02;13.20;44.70
13707;DHT22;6925;47.816;13.072;2024-02-26T10:52:31;13.20;44.30
13707;DHT22;6925;47.816;13.072;2024-02-26T10:55:00;13.10;44.40
13707;DHT22;6925;47.816;13.072;2024-02-26T10:57:33;13.20;45.90
13707;DHT22;6925;47.816;13.072;2024-02-26T11:00:02;13.40;46.30
13707;DHT22;6925;47.816;13.072;2024-02-26T11:02:32;13.40;45.60
13707;DHT22;6925;47.816;13.072;2024-02-26T11:05:02;13.40;44.70
13707;DHT22;6925;47.816;13.072;2024-02-26T11:07:30;13.30;44.70
13707;DHT22;6925;47.816;13.072;2024-02-26T11:09:58;13.30;45.10
13707;DHT22;6925;47.816;13.072;2024-02-26T11:12:27;13.20;45.20
13707;DHT22;6925;47.816;13.072;2024-02-26T11:14:57;13.20;45.60
13707;DHT22;6925;47.816;13.072;2024-02-26T11:17:26;13.30;46.60
13707;DHT22;6925;47.816;13.072;2024-02-26T11:19:56;13.30;46.30
13707;DHT22;6925;47.816;13.072;2024-02-26T11:22:24;13.40;46.40
13707;DHT22;6925;47.816;13.072;2024-02-26T11:24:53;13.40;45.40
13707;DHT22;6925;47.816;13.072;2024-02-26T11:27:24;13.30;45.30
13707;DHT22;6925;47.816;13.072;2024-02-26T11:29:58;13.20;45.40
13707;DHT22;6925;47.816;13.072;2024-02-26T11:32:26;13.20;45.60
13707;DHT22;6925;47.816;13.072;2024-02-26T11:34:56;13.20;46.00
13707;DHT22;6925;47.816;13.072;2024-02-26T11:37:23;13.10;46.10
13707;DHT22;6925;47.816;13.072;2024-02-26T11:39:51;13.10;45.90
13707;DHT22;6925;47.816;13.072;2024-02-26T11:42:23;13.10;45.80
13707;DHT22;6925;47.816;13.072;2024-02-26T11:44:51;13.10;46.40
13707;DHT22;6925;47.816;13.072;2024-02-26T11:47:21;13.20;47.10
13707;DHT22;6925;47.816;13.072;2024-02-26T11:49:48;13.40;47.50
13707;DHT22;6925;47.816;13.072;2024-02-26T11:52:16;13.50;47.40
13707;DHT22;6925;47.816;13.072;2024-02-26T11:54:47;13.50;47.00
13707;DHT22;6925;47.816;13.072;2024-02-26T11:57:24;13.70;48.60
13707;DHT22;6925;47.816;13.072;2024-02-26T11:59:52;14.10;47.10
13707;DHT22;6925;47.816;13.072;2024-02-26T12:02:39;14.40;46.00
13707;DHT22;6925;47.816;13.072;2024-02-26T12:05:09;14.60;45.00
13707;DHT22;6925;47.816;13.072;2024-02-26T12:07:40;14.80;44.80
13707;DHT22;6925;47.816;13.072;2024-02-26T12:10:23;15.00;43.80
13707;DHT22;6925;47.816;13.072;2024-02-26T12:12:58;15.20;43.80
13707;DHT22;6925;47.816;13.072;2024-02-26T12:15:31;15.40;44.00
13707;DHT22;6925;47.816;13.072;2024-02-26T12:18:02;15.70;44.70
13707;DHT22;6925;47.816;13.072;2024-02-26T12:20:30;15.90;43.90
13707;DHT22;6925;47.816;13.072;2024-02-26T12:22:57;16.20;45.70
13707;DHT22;6925;47.816;13.072;2024-02-26T12:25:24;16.50;45.20
13707;DHT22;6925;47.816;13.072;2024-02-26T12:27:52;16.70;44.20
13707;DHT22;6925;47.816;13.072;2024-02-26T12:30:20;16.90;43.90
13707;DHT22;6925;47.816;13.072;2024-02-26T12:32:46;17.20;44.00
13707;DHT22;6925;47.816;13.072;2024-02-26T12:35:16;17.20;42.30
13707;DHT22;6925;47.816;13.072;2024-02-26T12:37:43;17.30;41.00
13707;DHT22;6925;47.816;13.072;2024-02-26T12:40:11;17.30;40.40
13707;DHT22;6925;47.816;13.072;2024-02-26T12:42:39;17.40;39.60
13707;DHT22;6925;47.816;13.072;2024-02-26T12:45:08;17.40;40.70
13707;DHT22;6925;47.816;13.072;2024-02-26T12:47:36;17.50;40.00
13707;DHT22;6925;47.816;13.072;2024-02-26T12:50:04;17.60;40.50
13707;DHT22;6925;47.816;13.072;2024-02-26T12:52:34;17.80;42.50
13707;DHT22;6925;47.816;13.072;2024-02-26T12:55:02;18.20;40.20
13707;DHT22;6925;47.816;13.072;2024-02-26T12:57:31;18.30;39.20
13707;DHT22;6925;47.816;13.072;2024-02-26T13:00:00;18.30;37.70
13707;DHT22;6925;47.816;13.072;2024-02-26T13:02:30;18.30;38.40
13707;DHT22;6925;47.816;13.072;2024-02-26T13:04:57;18.40;38.10
13707;DHT22;6925;47.816;13.072;2024-02-26T13:07:27;18.50;37.80
13707;DHT22;6925;47.816;13.072;2024-02-26T13:09:55;18.70;39.50
13707;DHT22;6925;47.816;13.072;2024-02-26T13:12:23;19.10;39.10
13707;DHT22;6925;47.816;13.072;2024-02-26T13:14:58;19.30;37.40
13707;DHT22;6925;47.816;13.072;2024-02-26T13:17:26;19.40;37.90
13707;DHT22;6925;47.816;13.072;2024-02-26T13:19:54;19.70;35.80
13707;DHT22;6925;47.816;13.072;2024-02-26T13:22:21;19.80;36.10
13707;DHT22;6925;47.816;13.072;2024-02-26T13:24:57;19.80;35.30
13707;DHT22;6925;47.816;13.072;2024-02-26T13:27:24;19.80;36.60
13707;DHT22;6925;47.816;13.072;2024-02-26T13:30:03;20.00;36.80
13707;DHT22;6925;47.816;13.072;2024-02-26T13:32:32;20.10;34.80
13707;DHT22;6925;47.816;13.072;2024-02-26T13:35:08;20.10;35.80
13707;DHT22;6925;47.816;13.072;2024-02-26T13:37:36;20.10;35.10
13707;DHT22;6925;47.816;13.072;2024-02-26T13:40:09;20.00;34.70
13707;DHT22;6925;47.816;13.072;2024-02-26T13:42:36;19.90;34.90
13707;DHT22;6925;47.816;13.072;2024-02-26T13:45:05;19.80;34.30
13707;DHT22;6925;47.816;13.072;2024-02-26T13:47:32;19.70;33.70
13707;DHT22;6925;47.816;13.072;2024-02-26T13:50:00;19.70;33.80
13707;DHT22;6925;47.816;13.072;2024-02-26T13:52:27;19.70;34.40
13707;DHT22;6925;47.816;13.072;2024-02-26T13:54:57;19.60;35.10
13707;DHT22;6925;47.816;13.072;2024-02-26T13:57:26;19.60;35.80
13707;DHT22;6925;47.816;13.072;2024-02-26T13:59:54;19.70;35.60
13707;DHT22;6925;47.816;13.072;2024-02-26T14:02:21;19.80;36.60
13707;DHT22;6925;47.816;13.072;2024-02-26T14:04:48;19.90;36.00
13707;DHT22;6925;47.816;13.072;2024-02-26T14:07:15;20.00;36.30
13707;DHT22;6925;47.816;13.072;2024-02-26T14:09:43;20.20;36.80
13707;DHT22;6925;47.816;13.072;2024-02-26T14:12:11;20.40;35.70
13707;DHT22;6925;47.816;13.072;2024-02-26T14:14:40;20.50;36.00
13707;DHT22;6925;47.816;13.072;2024-02-26T14:17:08;20.60;36.20
13707;DHT22;6925;47.816;13.072;2024-02-26T14:19:35;20.70;34.70
13707;DHT22;6925;47.816;13.072;2024-02-26T14:22:05;20.70;35.40
13707;DHT22;6925;47.816;13.072;2024-02-26T14:24:32;20.60;35.40
13707;DHT22;6925;47.816;13.072;2024-02-26T14:26:59;20.40;35.10
13707;DHT22;6925;47.816;13.072;2024-02-26T14:29:26;20.30;36.20
13707;DHT22;6925;47.816;13.072;2024-02-26T14:31:54;20.30;36.40
13707;DHT22;6925;47.816;13.072;2024-02-26T14:34:22;20.30;35.80
13707;DHT22;6925;47.816;13.072;2024-02-26T14:36:49;20.30;36.10
13707;DHT22;6925;47.816;13.072;2024-02-26T14:39:16;20.20;35.60
13707;DHT22;6925;47.816;13.072;2024-02-26T14:41:43;20.00;36.00
13707;DHT22;6925;47.816;13.072;2024-02-26T14:44:10;19.80;35.70
13707;DHT22;6925;47.816;13.072;2024-02-26T14:46:38;19.60;35.80
13707;DHT22;6925;47.816;13.072;2024-02-26T14:49:06;19.30;35.80
13707;DHT22;6925;47.816;13.072;2024-02-26T14:51:33;19.10;37.10
13707;DHT22;6925;47.816;13.072;2024-02-26T14:54:00;18.90;36.70
13707;DHT22;6925;47.816;13.072;2024-02-26T14:56:28;18.80;36.80
13707;DHT22;6925;47.816;13.072;2024-02-26T14:58:54;18.60;37.90
13707;DHT22;6925;47.816;13.072;2024-02-26T15:01:22;18.40;37.20
13707;DHT22;6925;47.816;13.072;2024-02-26T15:03:50;18.10;39.30
13707;DHT22;6925;47.816;13.072;2024-02-26T15:06:19;18.00;39.70
13707;DHT22;6925;47.816;13.072;2024-02-26T15:08:46;17.90;40.40
13707;DHT22;6925;47.816;13.072;2024-02-26T15:11:13;17.90;41.10
13707;DHT22;6925;47.816;13.072;2024-02-26T15:13:41;17.80;41.50
13707;DHT22;6925;47.816;13.072;2024-02-26T15:16:08;17.60;41.90
13707;DHT22;6925;47.816;13.072;2024-02-26T15:18:37;17.50;42.30
13707;DHT22;6925;47.816;13.072;2024-02-26T15:21:04;17.40;43.30
13707;DHT22;6925;47.816;13.072;2024-02-26T15:23:34;17.30;44.10
13707;DHT22;6925;47.816;13.072;2024-02-26T15:26:01;17.30;44.70
13707;DHT22;6925;47.816;13.072;2024-02-26T15:28:29;17.20;43.80
13707;DHT22;6925;47.816;13.072;2024-02-26T15:30:56;17.20;44.70
13707;DHT22;6925;47.816;13.072;2024-02-26T15:33:23;17.00;44.90
13707;DHT22;6925;47.816;13.072;2024-02-26T15:35:50;17.00;45.70
13707;DHT22;6925;47.816;13.072;2024-02-26T15:38:17;16.80;45.90
13707;DHT22;6925;47.816;13.072;2024-02-26T15:40:46;16.70;45.50
13707;DHT22;6925;47.816;13.072;2024-02-26T15:43:13;16.50;45.70